Date,TemperatureHighF,TemperatureAvgF,TemperatureLowF,DewpointHighF,DewpointAvgF,DewpointLowF,HumidityHigh,HumidityAvg,HumidityLow,PressureMaxIn,PressureMinIn,WindSpeedMaxMPH,WindSpeedAvgMPH,GustSpeedMaxMPH,PrecipitationSumIn
2013-1-1,35.2,24.9,16.5,29.6,17.9,9.3,91,75,56,29.95,29.73,24,5,24,0.00
2013-1-2,28.9,17.8,7.0,23.1,11.0,-3.3,93,75,56,30.17,29.87,18,6,18,0.00
2013-1-3,29.7,16.1,5.4,25.5,10.7,-1.4,91,79,68,30.17,29.89,16,3,16,0.00
2013-1-4,38.7,32.3,27.7,27.6,22.8,19.8,86,68,51,29.91,29.80,27,8,27,0.01
2013-1-5,36.5,31.7,25.0,27.2,23.9,20.8,89,73,57,30.20,29.91,21,4,21,0.00
2013-1-6,39.9,35.0,28.9,33.8,29.7,23.8,93,81,65,30.03,29.81,20,4,20,0.01
2013-1-7,35.6,24.8,11.7,33.3,21.1,10.1,96,86,69,30.32,29.95,13,3,13,0.00
2013-1-8,45.5,30.1,10.2,24.4,20.9,8.5,100,70,38,30.26,30.10,11,3,11,0.01
2013-1-9,52.2,33.2,14.4,35.2,24.7,13.2,100,74,50,30.24,29.86,37,5,37,0.00
2013-1-10,44.1,35.5,25.2,29.4,26.5,23.6,97,71,49,30.49,30.18,24,4,24,0.00
2013-1-11,52.2,36.2,24.8,40.1,31.5,23.0,100,84,59,30.41,29.87,19,4,19,0.13
2013-1-12,55.2,41.8,33.1,46.9,39.6,32.8,100,93,68,29.98,29.91,8,1,8,0.00
2013-1-13,62.8,50.0,36.7,54.4,46.8,36.4,100,89,73,29.94,29.71,21,4,21,0.00
2013-1-14,55.0,39.1,30.9,51.9,32.2,20.1,100,77,59,30.29,29.66,22,4,22,0.01
2013-1-15,39.2,30.7,28.2,26.0,23.3,19.9,90,74,52,30.31,30.12,13,2,13,0.00
2013-1-16,37.6,31.7,28.4,30.9,28.0,24.3,100,86,75,30.12,29.70,12,2,12,0.01
2013-1-17,36.3,27.6,18.7,30.2,18.6,9.4,89,69,52,30.10,29.76,19,5,19,0.00
2013-1-18,30.0,20.7,13.6,18.8,11.3,3.9,92,68,36,30.33,30.02,14,4,14,0.01
2013-1-19,50.5,41.1,30.0,30.7,20.9,12.4,73,45,35,30.02,29.55,17,6,17,0.01
2013-1-20,47.3,33.8,20.3,37.1,16.3,4.9,87,49,31,29.98,29.36,42,11,42,0.26
2013-1-21,22.5,19.8,16.2,16.0,9.8,5.2,93,65,49,29.97,29.76,19,4,19,0.00
2013-1-22,20.1,13.0,7.0,12.3,-5.2,-15.9,85,46,25,30.08,29.77,30,8,30,0.00
2013-1-23,20.1,4.2,-9.6,1.4,-10.4,-22.9,77,53,17,30.17,30.06,0,0,0,0.00
2013-1-24,19.6,4.2,-11.4,1.1,-13.2,-27.4,61,44,18,30.38,30.04,17,2,17,0.00
2013-1-25,19.2,10.5,3.6,0.9,-5.8,-12.0,66,49,25,30.38,30.01,8,2,8,0.00
2013-1-26,23.4,6.7,-9.0,7.0,-14.0,-26.7,70,41,10,30.29,30.01,5,1,7,0.00
2013-1-27,33.3,19.3,10.8,10.1,-4.4,-26.6,75,40,10,30.48,30.29,10,2,10,0.00
2013-1-28,32.4,25.9,17.4,32.1,17.5,-1.2,100,73,39,30.34,29.80,10,2,10,0.00
2013-1-29,44.8,36.1,32.4,43.6,35.6,32.1,100,98,88,30.00,29.74,14,1,14,0.39
2013-1-30,62.8,55.8,37.8,54.6,50.1,37.3,99,82,70,29.73,29.00,27,8,27,0.18
2013-1-31,56.5,34.3,23.9,54.1,19.3,0.8,96,56,31,29.59,28.90,47,13,47,0.30
2013-2-1,25.7,20.2,17.4,18.3,12.2,4.9,90,72,44,30.09,29.59,20,5,20,0.00
2013-2-2,22.3,16.5,8.8,15.2,6.1,-2.7,88,64,34,30.10,29.90,16,3,16,0.00
2013-2-3,29.7,15.5,-0.9,9.7,0.2,-14.0,78,52,21,29.91,29.69,12,2,12,0.00
2013-2-4,23.5,18.7,14.2,10.6,3.0,-7.8,67,51,25,29.86,29.74,20,4,20,0.00
2013-2-5,30.6,18.0,4.6,7.1,-6.1,-24.8,70,40,10,29.91,29.77,9,1,9,0.00
2013-2-6,31.1,21.6,4.5,20.9,-1.6,-22.1,78,40,10,30.32,29.78,31,4,31,0.01
2013-2-7,32.0,17.9,1.8,-3.2,-17.1,-26.0,49,24,10,30.40,30.09,12,3,12,0.00
2013-2-8,31.3,26.1,19.6,24.2,8.5,-18.7,88,53,12,30.09,29.73,15,5,15,0.00
2013-2-9,25.9,16.7,9.5,12.9,1.0,-6.9,76,51,25,30.32,29.87,15,5,15,0.00
2013-2-10,42.6,19.8,-1.8,12.5,-8.2,-21.6,63,32,10,30.37,29.80,12,2,12,0.08
2013-2-11,52.3,39.4,26.4,31.1,12.9,-17.5,71,37,10,29.79,29.32,34,7,34,0.09
2013-2-12,37.2,34.1,31.6,27.3,14.2,2.6,82,45,25,29.69,29.44,24,8,24,0.01
2013-2-13,44.6,32.1,18.7,14.9,4.3,-13.7,60,36,10,29.65,29.47,15,2,15,0.00
2013-2-14,43.5,33.1,18.0,30.2,11.2,-10.0,81,46,10,29.67,29.52,10,4,10,0.07
2013-2-15,41.4,36.6,26.6,30.4,9.8,-4.3,81,35,19,29.77,29.52,22,5,22,0.00
2013-2-16,36.7,23.9,12.4,13.5,-5.0,-23.7,63,32,10,29.79,29.65,11,3,11,0.01
2013-2-17,22.1,14.4,11.5,0.4,-9.3,-29.6,55,36,10,29.85,29.61,22,6,22,0.00
2013-2-18,32.2,19.6,11.1,-0.9,-10.9,-24.8,53,29,10,30.02,29.75,10,2,10,0.05
2013-2-19,40.3,29.7,19.8,27.7,5.5,-13.1,69,38,18,29.75,29.31,21,3,21,0.06
2013-2-20,28.4,24.4,20.8,11.5,-3.8,-23.0,59,30,10,29.73,29.48,31,11,31,0.01
2013-2-21,20.8,17.6,13.5,10.4,2.7,-7.1,68,52,32,30.14,29.71,18,5,18,0.00
2013-2-22,37.9,25.5,7.0,13.3,4.2,-6.0,65,42,15,30.14,29.80,17,4,17,0.00
2013-2-23,39.0,35.3,33.1,30.7,21.8,7.7,87,60,32,29.81,29.59,14,3,14,0.08
2013-2-24,34.9,31.5,29.5,24.8,18.5,8.4,78,59,35,29.74,29.58,16,3,16,0.04
2013-2-25,41.7,34.3,27.1,25.3,18.4,6.4,77,55,23,29.98,29.74,12,3,12,0.04
2013-2-26,50.2,34.8,19.0,23.7,8.1,-7.4,77,41,10,29.99,29.62,17,4,17,0.09
2013-2-27,42.8,36.0,32.5,31.6,26.9,20.2,90,70,42,29.65,29.29,24,5,24,0.48
2013-2-28,43.3,36.5,33.3,32.8,26.9,14.3,92,71,32,29.40,29.27,12,3,12,0.09
2013-3-1,34.2,31.5,27.5,30.0,22.2,13.5,89,69,49,29.62,29.40,14,4,14,0.02
2013-3-2,27.5,25.1,22.3,19.4,10.9,5.5,71,55,41,29.64,29.58,12,4,12,0.00
2013-3-3,28.0,23.6,21.4,11.9,6.1,-2.0,64,48,28,29.59,29.55,16,4,16,0.00
2013-3-4,29.5,26.3,23.4,12.4,8.5,2.5,61,47,32,29.73,29.57,21,7,21,0.00
2013-3-5,41.2,28.3,19.2,13.6,9.0,-0.6,72,45,17,29.83,29.73,12,2,12,0.00
2013-3-6,45.9,34.0,19.0,19.2,11.8,4.6,79,44,19,29.86,29.72,13,3,13,0.00
2013-3-7,43.0,34.8,27.7,20.5,8.6,-10.5,74,36,11,29.96,29.84,16,4,16,0.00
2013-3-8,41.9,32.1,23.9,22.9,12.1,-9.1,81,50,11,30.11,29.95,20,5,20,0.06
2013-3-9,54.9,34.0,21.6,26.5,11.1,-7.6,83,49,10,30.14,29.99,8,2,8,0.00
2013-3-10,60.6,44.7,26.4,16.1,4.9,-7.7,61,26,10,29.99,29.75,17,4,17,0.00
2013-3-11,56.1,52.4,47.1,26.2,0.5,-6.3,34,12,10,29.79,29.47,30,7,30,0.00
2013-3-12,55.8,43.2,36.1,43.9,30.5,16.9,89,63,34,29.63,29.45,18,4,18,0.30
2013-3-13,43.2,34.8,26.6,27.3,10.7,-9.3,77,38,13,29.64,29.55,30,6,30,0.02
2013-3-14,32.4,25.1,18.9,13.3,-8.2,-22.1,61,26,10,29.76,29.62,36,10,36,0.01
2013-3-15,37.6,31.1,24.3,24.7,5.7,-20.3,70,36,11,29.75,29.42,19,5,19,0.02
2013-3-16,31.5,25.2,16.2,5.3,-3.9,-11.6,54,28,16,29.71,29.57,11,4,11,0.00
2013-3-17,34.2,24.7,15.6,12.4,-7.2,-23.2,66,31,10,30.07,29.70,17,4,17,0.00
2013-3-18,37.8,25.1,13.3,25.5,1.5,-23.5,86,46,10,30.10,29.59,17,4,17,0.00
2013-3-19,43.7,31.4,27.3,28.3,18.4,-5.7,86,64,19,29.59,29.41,12,2,12,0.17
2013-3-20,39.4,29.5,24.1,9.5,1.1,-17.1,47,31,10,29.56,29.51,25,4,25,0.00
2013-3-21,36.5,27.9,20.5,15.6,-4.9,-20.4,63,29,10,29.55,29.44,21,6,21,0.00
2013-3-22,33.8,29.1,24.6,21.3,14.5,-0.8,77,56,25,29.61,29.43,28,6,28,0.05
2013-3-23,42.3,34.0,28.6,25.6,10.2,-11.5,84,43,13,29.70,29.59,23,6,23,0.08
2013-3-24,45.0,34.5,25.7,14.9,1.8,-13.6,59,30,10,29.70,29.47,11,3,11,0.00
2013-3-25,48.4,36.0,26.1,13.6,4.5,-10.4,55,29,10,29.47,29.31,14,4,14,0.00
2013-3-26,49.1,37.8,29.3,24.9,10.7,-9.1,68,38,10,29.64,29.41,16,3,16,0.00
2013-3-27,50.7,39.0,28.9,25.6,11.0,-6.6,70,36,10,29.76,29.62,18,5,18,0.00
2013-3-28,50.5,40.1,33.4,26.8,16.4,-5.6,74,44,12,29.90,29.74,22,4,22,0.00
2013-3-29,49.1,40.1,30.2,23.2,16.4,0.3,66,40,14,29.92,29.84,13,4,13,0.00
2013-3-30,56.3,40.6,28.6,20.9,7.1,-10.1,65,32,10,29.93,29.82,18,3,18,0.00
2013-3-31,57.4,41.6,28.4,39.3,17.9,-9.7,85,48,10,29.82,29.37,21,4,21,0.30
2013-4-1,43.9,37.3,28.9,39.6,15.1,-15.3,91,49,10,29.65,29.30,29,6,29,0.09
2013-4-2,35.8,27.8,23.4,22.9,14.6,-11.9,80,60,14,29.81,29.65,36,7,36,0.06
2013-4-3,39.0,31.4,26.8,20.0,0.2,-17.2,69,31,10,30.07,29.80,26,7,26,0.05
2013-4-4,58.8,41.4,25.7,3.0,-4.1,-15.3,35,16,10,30.08,29.65,14,5,14,0.00
2013-4-5,47.1,39.9,32.7,11.1,-3.6,-16.8,36,16,10,29.83,29.60,21,6,21,0.00
2013-4-6,52.2,37.1,24.1,9.4,-7.6,-18.5,37,16,10,30.07,29.83,14,4,14,0.00
2013-4-7,69.3,52.3,38.7,18.7,2.1,-13.2,38,14,10,29.84,29.46,26,8,26,0.00
2013-4-8,60.3,49.3,39.9,25.5,14.4,-2.2,51,28,10,29.88,29.52,11,3,11,0.00
2013-4-9,66.7,53.2,45.1,42.4,30.8,13.2,83,46,15,29.85,29.50,25,5,25,0.31
2013-4-10,53.2,46.9,41.9,46.9,43.8,38.1,96,89,70,29.80,29.59,14,4,14,0.48
2013-4-11,42.3,37.2,34.3,38.7,27.2,6.9,89,70,28,29.88,29.68,16,6,16,0.12
2013-4-12,43.3,38.4,33.4,40.4,33.3,25.4,95,82,57,29.75,29.36,19,5,19,0.73
2013-4-13,41.5,40.8,39.7,29.5,27.6,25.5,66,59,53,29.54,29.51,9,3,9,0.00
2013-4-14,52.2,40.7,30.2,27.8,10.6,-9.1,71,35,10,29.95,29.65,18,4,18,0.02
2013-4-15,73.8,52.5,30.0,24.6,13.7,1.3,75,28,10,29.97,29.81,21,6,21,0.00
2013-4-16,63.0,56.3,44.6,50.6,35.8,18.1,83,49,24,29.96,29.69,22,8,22,0.20
2013-4-17,59.2,47.0,32.7,34.0,14.5,-1.5,81,35,10,30.08,29.96,14,3,14,0.00
2013-4-18,73.4,57.3,37.8,43.3,26.8,5.9,65,37,10,30.00,29.55,29,9,29,0.07
2013-4-19,77.0,61.8,42.8,43.5,36.9,17.5,69,41,16,29.55,29.14,29,10,29,0.20
2013-4-20,47.8,40.8,33.1,18.2,3.8,-9.5,36,22,10,30.12,29.49,34,8,34,0.01
2013-4-21,48.6,37.3,27.0,10.4,-2.6,-14.3,44,21,10,30.40,30.12,11,3,11,0.00
2013-4-22,63.9,46.4,28.2,14.0,3.7,-8.6,51,22,10,30.36,30.12,20,5,20,0.00
2013-4-23,67.1,51.5,39.2,23.8,3.3,-9.7,41,15,10,30.14,29.76,17,6,17,0.00
2013-4-24,71.4,57.0,42.8,40.6,24.2,5.6,61,32,10,29.76,29.36,34,7,34,0.05
2013-4-25,62.2,47.8,38.7,22.8,6.1,-8.0,51,21,10,30.05,29.70,28,6,28,0.00
2013-4-26,56.5,45.6,33.6,34.6,13.5,-6.5,73,35,10,30.21,30.04,14,3,14,0.11
2013-4-27,71.4,49.8,29.5,26.8,14.7,1.2,70,34,10,30.19,29.98,9,2,9,0.00
2013-4-28,77.4,59.6,38.7,33.0,17.5,3.9,63,27,10,29.99,29.78,16,4,16,0.01
2013-4-29,60.8,56.3,51.3,39.3,31.4,19.3,63,40,25,29.86,29.79,18,6,18,0.13
2013-4-30,73.8,61.5,54.5,38.9,33.7,18.8,53,37,14,29.99,29.83,14,4,14,0.00
2013-5-1,87.3,65.1,46.8,38.2,23.9,6.3,66,29,10,30.12,29.99,18,3,18,0.00
2013-5-2,86.4,65.3,44.4,31.5,17.7,-0.2,50,19,10,30.18,30.01,11,2,11,0.00
2013-5-3,80.8,64.9,47.3,34.3,19.3,3.1,58,22,10,30.08,29.96,14,3,14,0.00
2013-5-4,81.9,62.8,41.9,30.4,17.2,4.2,56,21,10,30.05,29.88,11,2,11,0.00
2013-5-5,84.0,64.1,43.3,41.1,23.1,7.5,71,29,10,29.96,29.81,14,2,14,0.00
2013-5-6,86.4,63.5,40.8,33.6,18.2,-1.8,63,22,10,29.93,29.75,10,2,10,0.00
2013-5-7,87.3,67.5,48.6,46.9,29.9,15.6,75,33,10,29.87,29.73,11,2,11,0.00
2013-5-8,71.1,61.0,50.7,55.9,47.4,40.3,84,62,35,29.83,29.67,11,2,11,0.05
2013-5-9,77.4,61.6,50.0,56.3,42.5,16.2,88,57,10,29.70,29.60,14,2,14,0.00
2013-5-10,76.6,63.3,48.2,59.2,43.9,23.1,89,56,15,29.70,29.49,17,2,17,0.31
2013-5-11,65.3,57.1,46.9,58.2,47.1,33.7,91,71,34,29.50,29.41,18,3,18,0.32
2013-5-12,58.1,47.3,37.4,45.4,20.0,-4.1,90,45,10,29.64,29.42,34,6,34,0.05
2013-5-13,55.4,43.2,37.9,27.4,12.1,-6.5,64,31,10,29.85,29.63,22,5,22,0.04
2013-5-14,63.7,46.4,29.8,31.9,11.2,-5.4,82,34,10,29.90,29.75,12,2,12,0.01
2013-5-15,82.9,56.8,36.1,39.2,22.5,5.6,69,32,10,29.75,29.26,25,3,25,0.06
2013-5-16,77.7,63.6,46.6,35.2,20.5,4.3,64,24,10,29.73,29.45,24,4,24,0.00
2013-5-17,71.1,54.7,37.2,42.1,21.3,5.7,76,35,10,29.98,29.73,10,2,10,0.00
2013-5-18,79.9,59.0,37.4,44.1,25.2,9.6,79,37,10,30.03,29.90,9,1,9,0.00
2013-5-19,73.8,63.0,52.3,48.2,44.4,38.8,72,52,32,29.93,29.79,14,3,14,0.00
2013-5-20,91.4,73.4,59.0,56.7,48.5,30.8,79,47,12,29.81,29.60,9,2,9,0.00
2013-5-21,90.9,74.6,61.2,68.4,56.8,42.4,90,59,22,29.66,29.47,11,2,11,0.24
2013-5-22,90.3,74.3,62.6,72.2,61.1,47.8,100,70,25,29.56,29.40,9,1,9,0.01
2013-5-23,81.1,69.6,50.7,64.4,55.8,46.9,89,64,37,29.54,29.44,15,2,15,0.35
2013-5-24,55.6,43.8,40.6,52.0,38.4,33.9,91,81,65,29.88,29.54,18,4,18,0.27
2013-5-25,59.7,49.4,41.4,34.9,26.4,8.4,68,44,15,29.89,29.83,18,4,18,0.00
2013-5-26,66.2,53.5,43.2,38.4,20.9,3.1,78,36,10,29.92,29.78,23,4,23,0.00
2013-5-27,74.3,57.5,43.3,32.0,19.8,5.7,64,29,10,30.00,29.88,14,3,14,0.00
2013-5-28,64.6,54.9,41.0,56.5,42.6,29.8,92,65,31,29.92,29.71,11,2,11,0.32
2013-5-29,85.8,68.5,57.7,71.8,61.4,55.4,100,82,38,29.75,29.62,24,1,24,0.92
2013-5-30,94.5,75.7,60.6,75.0,62.2,46.4,99,70,22,29.85,29.75,10,1,10,0.02
2013-5-31,97.9,83.5,61.2,73.3,55.5,33.3,99,48,11,29.83,29.65,9,2,9,0.00
2013-6-1,93.0,77.1,61.7,69.2,60.2,52.2,100,62,26,29.70,29.51,21,2,21,0.00
2013-6-2,84.0,72.6,61.7,71.4,59.5,42.3,100,68,28,29.61,29.43,27,3,27,0.35
2013-6-3,67.1,56.9,46.8,52.3,38.3,19.6,79,53,19,29.75,29.61,15,3,15,0.00
2013-6-4,71.6,56.1,42.4,46.5,30.8,7.7,93,50,10,29.91,29.74,14,2,14,0.00
2013-6-5,77.2,61.1,45.9,45.5,36.1,15.2,90,47,10,29.96,29.83,8,1,8,0.00
2013-6-6,59.4,55.9,53.8,56.7,50.0,38.4,100,82,49,29.84,29.62,17,2,17,1.57
2013-6-7,64.4,59.4,54.5,63.0,58.8,54.2,100,98,91,29.63,29.53,8,2,8,0.04
2013-6-8,66.6,61.7,56.5,62.9,57.1,50.5,100,85,67,29.81,29.57,13,2,13,0.08
2013-6-9,82.8,66.3,52.5,58.1,49.6,34.4,100,63,19,29.93,29.81,11,2,11,0.00
2013-6-10,71.1,62.6,54.9,64.6,58.8,52.4,100,88,56,29.90,29.50,12,2,12,0.44
2013-6-11,66.9,62.7,56.8,66.7,61.5,55.5,100,96,78,29.55,29.37,17,3,17,0.25
2013-6-12,81.0,65.0,53.8,60.9,49.8,35.9,100,66,22,29.67,29.54,8,2,8,0.00
2013-6-13,68.4,59.0,47.7,66.1,58.3,47.4,100,98,89,29.55,29.31,21,3,21,0.91
2013-6-14,76.5,62.7,51.1,60.6,53.1,46.8,99,75,37,29.68,29.49,14,2,14,0.00
2013-6-15,78.6,64.2,50.2,59.4,44.6,17.0,99,60,12,29.77,29.69,12,2,12,0.00
2013-6-16,75.6,65.2,54.7,66.3,57.2,47.6,100,78,43,29.70,29.44,11,2,11,0.20
2013-6-17,82.8,69.3,59.7,69.5,57.8,43.6,100,71,29,29.67,29.56,17,2,17,0.20
2013-6-18,76.5,63.3,51.8,60.5,49.0,30.5,100,67,23,29.76,29.64,8,2,8,0.00
2013-6-19,75.6,59.6,45.5,59.1,34.6,9.9,100,52,10,29.95,29.75,11,1,11,0.00
2013-6-20,81.9,62.5,41.5,58.0,37.9,15.6,100,52,10,30.00,29.93,12,1,12,0.00
2013-6-21,89.4,69.1,46.2,59.7,39.2,18.2,100,48,10,30.02,29.90,6,1,6,0.00
2013-6-22,90.5,75.5,59.5,70.7,60.1,44.0,93,64,23,29.91,29.74,9,1,9,0.00
2013-6-23,93.0,77.3,69.3,72.5,65.7,58.5,100,71,32,29.81,29.72,11,2,11,0.18
2013-6-24,93.9,78.1,67.6,74.4,67.2,53.6,100,73,29,29.77,29.67,15,2,15,0.05
2013-6-25,86.7,76.2,65.3,70.1,65.4,57.2,100,72,38,29.70,29.51,16,2,16,0.01
2013-6-26,88.3,75.6,66.4,72.7,65.2,56.1,100,74,36,29.57,29.50,11,2,11,0.24
2013-6-27,88.3,73.4,62.1,74.9,65.2,59.4,100,79,39,29.55,29.35,12,0,12,0.19
2013-6-28,78.3,68.6,62.4,68.8,63.2,57.6,100,85,50,29.35,29.23,8,1,8,0.21
2013-6-29,84.0,69.3,61.2,65.3,60.3,52.0,100,77,35,29.44,29.25,12,1,12,0.12
2013-6-30,85.5,72.5,61.0,71.9,61.0,52.2,100,71,34,29.65,29.44,10,1,10,0.00
2013-7-1,74.5,68.5,63.9,72.4,65.9,61.4,100,92,66,29.74,29.64,4,1,4,0.26
2013-7-2,90.5,73.3,64.8,74.7,67.2,64.0,99,83,44,29.84,29.73,4,1,4,0.02
2013-7-3,95.2,77.8,66.2,76.3,66.9,54.7,100,75,32,29.91,29.82,9,1,9,0.01
2013-7-4,90.5,78.2,69.8,79.6,69.8,64.2,99,78,43,29.91,29.84,11,1,11,0.13
2013-7-5,84.2,73.8,68.9,77.6,72.0,68.6,100,94,67,29.89,29.80,5,0,5,0.61
2013-7-6,92.5,77.9,69.4,74.2,66.0,51.3,100,72,27,29.89,29.77,8,1,8,0.01
2013-7-7,90.7,79.0,69.8,76.3,67.1,58.2,100,71,36,29.80,29.67,11,2,11,0.01
2013-7-8,89.6,76.1,67.8,72.2,65.9,55.4,100,74,33,29.80,29.71,10,1,10,0.14
2013-7-9,95.9,76.5,67.5,75.3,68.1,56.0,100,79,31,29.80,29.66,11,1,11,0.22
2013-7-10,90.7,77.9,69.8,75.3,69.1,64.0,100,77,44,29.66,29.46,23,2,23,0.21
2013-7-11,82.8,72.2,61.9,68.0,58.1,49.3,95,64,33,29.77,29.54,10,2,11,0.00
2013-7-12,83.5,70.3,59.4,69.7,57.3,44.9,100,69,27,29.91,29.76,7,1,7,0.00
2013-7-13,83.5,72.8,61.3,68.3,62.8,56.7,100,74,46,30.00,29.90,12,2,12,0.00
2013-7-14,97.0,79.9,65.5,74.4,65.0,55.8,100,67,28,30.05,29.96,8,1,8,0.00
2013-7-15,92.7,80.7,68.4,80.5,65.6,51.3,100,66,27,30.03,29.95,10,1,10,0.00
2013-7-16,94.1,80.0,67.3,67.7,63.3,52.2,100,63,27,30.01,29.93,8,1,8,0.00
2013-7-17,97.2,80.6,66.6,77.6,69.3,61.0,100,73,34,29.97,29.79,27,1,27,0.09
2013-7-18,94.3,82.3,73.0,80.0,70.5,61.7,100,71,35,29.81,29.67,15,2,15,0.02
2013-7-19,96.8,83.5,64.9,71.4,66.3,55.4,97,61,27,29.69,29.45,24,3,24,0.18
2013-7-20,79.9,72.1,64.2,72.6,65.7,57.5,100,82,50,29.62,29.46,16,2,16,0.20
2013-7-21,82.4,71.1,60.8,70.2,56.3,41.7,100,67,27,29.75,29.61,8,1,8,0.00
2013-7-22,88.5,73.2,59.4,68.3,59.9,50.4,100,68,32,29.74,29.53,8,1,8,0.05
2013-7-23,90.0,76.3,68.2,73.9,65.1,54.1,100,73,33,29.53,29.33,10,1,10,0.20
2013-7-24,70.9,63.3,50.5,67.3,49.2,38.3,89,62,35,29.79,29.39,15,3,15,0.01
2013-7-25,81.0,63.7,46.2,59.8,43.8,22.0,100,58,13,29.88,29.79,9,1,9,0.00
2013-7-26,84.2,66.5,49.1,58.7,48.8,35.7,100,60,23,29.86,29.76,12,1,12,0.00
2013-7-27,85.3,68.5,53.2,68.4,57.7,46.4,100,74,27,29.77,29.61,15,1,15,0.31
2013-7-28,82.9,69.6,61.7,72.8,64.2,54.1,100,85,39,29.73,29.59,6,0,6,0.15
2013-7-29,80.1,64.9,54.9,67.6,54.7,39.6,100,74,26,29.87,29.73,10,1,10,0.01
2013-7-30,80.8,66.6,57.4,60.1,54.2,43.9,100,69,28,29.95,29.87,13,2,13,0.00
2013-7-31,86.4,70.1,55.0,68.6,52.3,35.7,100,62,18,29.91,29.70,8,1,8,0.00
2013-8-1,81.9,68.9,60.1,70.0,61.3,54.9,97,79,43,29.70,29.50,14,1,14,0.44
2013-8-2,80.6,67.4,58.6,65.4,57.1,47.1,100,74,34,29.65,29.58,14,1,14,0.04
2013-8-3,79.3,68.1,59.9,65.5,55.0,39.0,100,69,25,29.66,29.56,17,2,17,0.05
2013-8-4,73.6,64.9,57.2,58.5,51.7,42.1,95,66,34,29.77,29.65,19,3,19,0.01
2013-8-5,80.4,64.4,50.0,56.5,45.6,22.3,100,59,16,29.85,29.77,8,1,8,0.00
2013-8-6,86.7,66.5,50.0,60.7,48.9,32.7,100,62,17,29.83,29.76,8,1,8,0.00
2013-8-7,79.7,71.5,59.7,64.1,58.5,53.8,90,65,46,29.79,29.66,14,3,14,0.00
2013-8-8,90.9,76.3,67.1,72.9,64.9,54.2,100,72,31,29.72,29.65,8,1,8,0.04
2013-8-9,79.5,71.8,64.2,75.1,68.7,62.9,100,91,64,29.67,29.57,9,1,9,0.30
2013-8-10,76.1,66.6,53.1,63.7,49.5,24.1,97,61,17,29.84,29.65,14,2,14,0.00
2013-8-11,82.6,65.1,50.4,58.0,49.0,38.1,100,64,24,29.88,29.77,9,1,9,0.00
2013-8-12,84.0,69.3,56.8,63.6,55.8,41.5,100,69,23,29.80,29.61,8,1,8,0.00
2013-8-13,80.4,67.5,60.6,70.5,58.8,43.1,100,76,46,29.61,29.46,17,2,17,0.86
2013-8-14,72.0,61.2,53.1,54.0,45.9,36.8,87,59,30,29.81,29.56,17,4,17,0.02
2013-8-15,79.3,62.9,50.0,52.5,46.0,-12.2,94,60,23,29.88,29.80,42,2,42,0.00
2013-8-16,82.2,64.9,51.3,60.1,47.4,25.3,100,63,16,29.96,29.86,10,1,10,0.00
2013-8-17,86.5,67.4,49.8,62.9,50.3,34.6,100,63,17,30.05,29.96,6,0,6,0.00
2013-8-18,84.4,68.1,55.8,64.2,55.9,42.9,100,71,24,30.01,29.85,6,0,6,0.00
2013-8-19,87.8,71.0,58.8,64.3,55.1,37.6,100,66,20,29.86,29.75,9,1,9,0.00
2013-8-20,89.1,71.3,57.6,67.4,56.7,42.1,100,68,20,29.88,29.79,10,1,10,0.00
2013-8-21,91.6,73.3,57.7,69.4,57.8,44.0,100,67,21,29.92,29.76,9,1,9,0.00
2013-8-22,90.3,72.9,61.3,70.9,63.5,55.2,100,78,32,29.77,29.59,16,2,16,0.53
2013-8-23,78.3,66.5,54.7,67.7,54.3,41.9,100,71,31,29.95,29.70,8,1,8,0.01
2013-8-24,85.3,64.9,48.7,63.3,46.1,28.1,100,62,15,30.11,29.95,7,0,7,0.00
2013-8-25,86.9,67.7,49.8,63.2,52.5,34.8,100,66,17,30.11,29.86,10,1,10,0.00
2013-8-26,79.3,69.9,64.4,70.5,65.2,57.9,100,86,58,29.90,29.66,10,1,10,0.65
2013-8-27,91.2,74.3,66.2,75.3,67.2,59.3,100,82,37,29.69,29.61,6,0,6,0.01
2013-8-28,93.2,75.4,65.3,74.5,66.5,54.5,100,79,31,29.67,29.57,10,1,10,0.07
2013-8-29,89.1,71.5,61.5,71.3,63.8,58.5,100,81,38,29.78,29.66,7,1,7,0.01
2013-8-30,91.8,73.9,60.1,71.0,61.8,47.8,100,73,26,29.76,29.51,8,1,8,0.06
2013-8-31,87.8,74.7,68.7,78.4,68.3,62.4,100,83,45,29.60,29.47,11,1,11,0.11
2013-9-1,91.0,75.4,65.1,73.5,64.3,54.7,100,74,31,29.60,29.48,8,0,8,0.35
2013-9-2,90.3,71.5,65.1,74.5,67.2,58.3,100,89,36,29.53,29.38,11,1,11,1.06
2013-9-3,71.8,64.7,60.8,65.2,56.5,47.3,100,76,45,29.66,29.51,14,2,14,0.00
2013-9-4,82.9,68.4,53.8,60.6,51.0,32.6,100,60,19,29.73,29.66,14,2,14,0.00
2013-9-5,71.2,61.5,48.4,60.0,42.5,23.1,88,56,19,29.95,29.67,13,2,13,0.00
2013-9-6,76.5,58.0,44.1,50.2,39.3,17.6,100,61,12,30.03,29.85,10,1,10,0.00
2013-9-7,70.3,60.1,51.3,59.7,52.0,42.7,97,77,39,29.85,29.64,8,0,8,0.12
2013-9-8,69.8,60.7,45.3,62.5,45.3,21.3,99,66,18,29.87,29.58,13,2,13,0.08
2013-9-9,81.5,60.6,42.1,55.7,42.1,14.4,100,61,10,29.93,29.74,11,1,11,0.00
2013-9-10,94.3,75.3,63.3,74.8,65.2,50.8,100,74,40,29.84,29.66,14,2,14,0.30
2013-9-11,97.9,82.6,73.0,76.5,67.1,58.7,100,63,28,29.78,29.65,10,2,10,0.00
2013-9-12,82.6,71.5,62.6,71.6,64.7,60.0,100,81,47,29.69,29.45,9,1,9,0.13
2013-9-13,63.0,56.6,50.0,62.8,53.5,46.8,100,90,66,29.74,29.44,12,2,12,0.19
2013-9-14,65.5,53.3,44.4,50.4,43.7,30.6,100,75,28,29.87,29.72,11,1,11,0.01
2013-9-15,70.7,56.5,43.2,52.9,42.8,22.1,100,68,18,29.91,29.79,7,1,7,0.00
2013-9-16,61.2,51.1,39.2,54.0,40.1,30.8,95,68,36,30.13,29.89,11,3,11,0.11
2013-9-17,72.0,49.9,33.4,46.7,30.9,7.2,94,60,10,30.24,30.06,7,1,7,0.00
2013-9-18,81.0,57.1,37.8,48.5,33.9,12.3,94,58,10,30.07,29.87,8,1,8,0.00
2013-9-19,83.1,59.1,43.3,52.9,44.0,24.5,96,68,13,29.89,29.77,7,0,7,0.00
2013-9-20,85.5,65.8,47.7,57.6,49.4,39.6,97,63,22,29.78,29.57,11,2,11,0.00
2013-9-21,74.3,65.5,57.9,61.5,55.5,49.6,100,72,46,29.58,29.36,14,4,24,0.54
2013-9-22,60.3,53.7,48.2,57.7,42.9,26.8,100,70,31,29.75,29.43,19,3,19,0.02
2013-9-23,60.6,49.3,41.7,45.1,37.8,24.8,95,69,26,29.87,29.74,10,1,10,0.00
2013-9-24,67.5,50.5,36.0,47.1,36.6,25.7,96,66,22,29.88,29.75,12,1,12,0.00
2013-9-25,74.7,55.1,40.8,44.5,38.5,12.9,100,64,10,29.75,29.68,8,1,8,0.00
2013-9-26,74.5,56.2,40.5,52.3,42.1,34.1,96,67,24,29.89,29.75,8,1,8,0.00
2013-9-27,77.9,56.7,40.8,50.9,42.5,31.0,95,67,20,30.01,29.88,7,1,7,0.00
2013-9-28,78.8,57.7,42.3,52.5,44.1,31.5,96,68,20,30.08,29.95,11,1,11,0.00
2013-9-29,81.1,60.4,46.9,56.1,42.5,21.6,100,64,12,29.95,29.77,11,2,11,0.00
2013-9-30,85.1,62.7,46.2,54.1,45.6,27.0,95,63,14,29.80,29.69,8,0,8,0.00
2013-10-1,82.2,63.5,53.2,63.7,52.2,40.0,100,74,23,29.77,29.67,10,1,10,0.00
2013-10-2,81.0,64.3,51.1,59.0,52.5,35.7,100,70,25,29.82,29.66,14,2,14,0.00
2013-10-3,77.7,59.9,45.9,54.6,44.1,16.5,100,66,10,29.89,29.77,8,1,8,0.00
2013-10-4,67.5,61.2,56.7,62.8,58.6,53.2,100,92,74,29.81,29.74,5,0,5,0.14
2013-10-5,65.8,62.4,59.7,63.2,60.8,58.6,100,95,81,29.84,29.78,4,0,4,0.01
2013-10-6,72.7,63.6,57.0,66.4,60.6,56.8,100,91,65,29.79,29.56,14,2,14,0.28
2013-10-7,75.2,63.5,52.3,60.1,52.6,37.0,97,69,44,29.75,29.36,32,4,32,0.90
2013-10-8,70.9,54.4,42.6,49.8,38.2,20.5,100,62,17,30.11,29.76,11,1,11,0.01
2013-10-9,74.1,52.5,36.3,46.3,35.1,15.3,94,63,11,30.18,30.05,8,1,8,0.00
2013-10-10,69.6,49.9,37.4,49.8,38.7,24.3,96,72,23,30.05,29.91,5,0,5,0.00
2013-10-11,74.3,53.1,43.0,52.8,40.9,11.2,100,74,10,29.91,29.85,6,0,6,0.00
2013-10-12,79.9,58.7,38.1,47.4,38.1,20.2,97,57,15,29.99,29.88,12,1,12,0.00
2013-10-13,72.7,59.8,48.6,54.3,47.2,40.6,97,67,34,30.07,29.99,10,1,10,0.00
2013-10-14,60.6,57.1,51.6,57.2,53.9,46.8,100,90,61,30.07,30.00,7,1,7,0.09
2013-10-15,72.3,58.7,51.6,59.8,49.4,39.0,99,76,31,30.04,29.75,8,1,8,0.00
2013-10-16,68.0,62.0,53.2,56.6,42.9,29.6,97,53,29,29.75,29.53,17,4,17,0.13
2013-10-17,70.9,58.3,46.0,56.6,43.5,24.9,97,64,18,29.63,29.39,11,2,11,0.41
2013-10-18,62.4,50.1,43.3,52.5,38.7,20.2,100,71,22,29.66,29.42,14,1,14,0.08
2013-10-19,67.1,54.9,44.6,48.9,34.5,17.9,91,52,16,29.66,29.39,19,4,19,0.15
2013-10-20,59.5,49.3,43.7,44.1,30.2,8.5,93,52,16,29.75,29.47,16,4,16,0.01
2013-10-21,67.3,56.5,43.2,44.5,22.8,5.4,95,39,10,29.75,29.54,16,4,16,0.01
2013-10-22,59.0,49.4,39.0,47.6,26.0,-2.2,92,47,10,29.59,29.48,21,4,21,0.06
2013-10-23,56.1,42.0,35.4,36.1,27.2,9.5,90,59,18,29.57,29.40,19,2,19,0.09
2013-10-24,52.7,41.2,33.6,34.9,23.4,-4.1,91,56,10,29.73,29.51,30,6,30,0.14
2013-10-25,49.3,41.1,37.2,38.4,32.6,19.6,92,74,32,29.91,29.72,17,3,17,0.07
2013-10-26,47.8,43.8,37.9,35.1,18.9,1.5,85,39,15,29.88,29.54,23,6,23,0.01
2013-10-27,53.6,43.7,37.8,32.3,25.3,6.8,76,50,16,29.80,29.54,17,4,17,0.02
2013-10-28,54.9,42.4,27.3,29.2,19.6,-3.6,73,43,11,30.14,29.78,14,4,14,0.00
2013-10-29,53.2,35.3,21.0,24.9,9.8,-9.8,77,45,10,30.22,30.05,8,1,8,0.00
2013-10-30,61.0,43.1,35.6,37.3,28.3,18.3,86,60,19,30.05,29.88,7,1,7,0.01
2013-10-31,62.6,52.5,38.1,56.7,47.8,33.7,100,84,70,29.88,29.23,14,4,14,0.59
2013-11-1,69.3,61.3,49.8,57.1,38.1,9.3,85,49,10,29.43,28.97,29,10,29,0.39
2013-11-2,54.9,46.4,37.8,44.7,38.4,22.0,94,75,40,29.69,29.36,17,4,17,0.08
2013-11-3,39.0,32.5,22.5,23.3,10.9,-2.9,69,42,20,30.28,29.69,15,5,15,0.01
2013-11-4,49.1,32.9,18.9,22.5,4.5,-12.0,74,39,10,30.41,30.26,12,2,12,0.00
2013-11-5,59.9,47.2,31.3,20.4,2.4,-13.3,47,17,10,30.28,30.10,14,5,14,0.00
2013-11-6,64.9,57.0,49.3,36.5,26.7,13.2,46,32,14,30.11,29.55,20,8,20,0.00
2013-11-7,60.6,46.3,36.9,51.5,32.8,19.4,90,61,38,29.71,29.51,18,6,18,0.43
2013-11-8,40.3,37.3,32.7,30.0,20.4,11.0,82,52,31,29.94,29.66,21,4,21,0.31
2013-11-9,48.7,41.5,33.8,33.5,15.9,-6.2,87,44,10,29.96,29.51,14,3,15,0.08
2013-11-10,50.2,44.5,37.9,34.6,22.4,4.3,74,44,17,29.85,29.50,30,7,30,0.22
2013-11-11,46.6,39.8,32.5,29.9,21.5,2.7,78,52,17,29.89,29.66,25,4,25,0.14
2013-11-12,36.7,29.6,26.2,18.9,7.3,-13.1,65,39,12,30.09,29.80,21,2,21,0.01
2013-11-13,40.5,30.7,18.7,6.7,-6.6,-18.7,45,21,10,30.16,29.85,19,4,19,0.01
2013-11-14,56.1,40.7,30.0,0.2,-10.8,-19.4,21,11,10,29.86,29.76,19,4,19,0.00
2013-11-15,59.7,45.4,38.7,8.2,-6.2,-12.6,27,11,10,29.88,29.80,11,2,11,0.00
2013-11-16,64.8,49.2,36.0,20.8,5.7,-10.9,43,19,10,30.00,29.85,11,2,11,0.00
2013-11-17,62.1,56.2,49.8,46.8,38.3,18.5,72,52,28,29.85,29.14,24,7,24,0.17
2013-11-18,62.1,50.5,37.9,49.7,18.9,-2.0,80,32,10,29.58,29.12,44,11,44,0.19
2013-11-19,38.5,34.6,28.9,26.2,9.9,-1.4,74,36,25,30.18,29.57,30,2,30,0.01
2013-11-20,46.2,29.4,17.6,12.9,-0.9,-16.2,62,31,10,30.35,30.18,10,0,10,0.00
2013-11-21,48.9,36.4,20.8,25.5,2.7,-14.0,56,27,10,30.28,30.02,14,2,14,0.01
2013-11-22,47.1,42.7,36.7,44.9,36.5,20.3,92,79,50,30.03,29.68,20,3,23,0.21
2013-11-23,39.9,30.6,18.5,22.5,7.4,-23.3,77,42,10,29.88,29.67,30,4,34,0.00
2013-11-24,26.1,20.2,16.2,7.5,-3.6,-23.7,62,38,12,30.11,29.81,10,1,10,0.00
2013-11-25,38.1,27.3,15.8,6.5,-9.1,-19.0,56,25,10,30.12,29.87,11,0,11,0.02
2013-11-26,37.2,33.5,32.0,28.5,9.7,-17.8,85,45,10,29.93,29.55,6,0,6,0.00
2013-11-27,35.4,32.2,23.7,32.4,24.8,3.2,93,76,39,29.56,29.27,27,1,27,0.43
2013-11-28,33.3,23.1,18.7,14.6,2.8,-21.0,69,45,10,30.17,29.56,15,0,15,0.00
2013-11-29,35.2,21.3,7.2,12.7,-2.4,-23.2,67,40,10,30.49,30.17,13,0,13,0.01
2013-11-30,33.6,21.1,4.5,-7.7,-17.4,-23.1,39,20,10,30.49,29.98,9,0,9,0.00
2013-12-1,42.3,35.1,31.1,22.3,-5.5,-19.0,66,22,10,29.99,29.71,0,0,0,0.07
2013-12-2,42.3,35.0,31.6,36.8,26.5,22.3,88,72,46,29.72,29.60,0,0,0,0.00
2013-12-3,46.6,34.3,24.8,30.7,16.8,-8.6,89,58,10,29.76,29.63,1,0,1,0.01
2013-12-4,52.0,34.9,24.3,26.3,22.2,17.2,83,62,25,29.82,29.71,6,0,6,0.00
2013-12-5,59.4,51.0,35.2,44.9,36.8,23.3,88,59,39,29.74,29.52,17,2,17,0.02
2013-12-6,40.8,34.7,30.2,28.4,19.9,9.2,81,56,33,29.97,29.72,14,2,14,0.26
2013-12-7,35.6,29.9,27.0,21.6,1.9,-19.7,71,35,10,30.26,29.94,11,1,11,0.01
2013-12-8,35.6,26.9,21.9,14.3,-8.4,-20.6,60,22,10,30.31,30.02,3,0,3,0.00
2013-12-9,43.9,35.3,26.1,25.4,15.0,-0.1,62,45,22,30.02,29.58,17,0,17,0.06
2013-12-10,35.8,28.1,22.3,7.4,-8.2,-26.0,49,21,10,29.78,29.64,16,0,16,0.00
2013-12-11,28.0,23.3,18.0,3.4,-16.4,-26.6,52,17,10,29.97,29.77,14,0,14,0.00
2013-12-12,24.8,17.3,7.7,4.0,-13.2,-28.6,55,29,10,30.05,29.75,21,1,21,0.00
2013-12-13,24.4,18.5,10.4,11.7,-7.4,-29.2,58,33,14,30.14,29.73,15,0,15,0.00
2013-12-14,14.7,10.6,5.4,-1.9,-15.6,-31.5,49,31,13,30.22,29.55,14,1,14,0.00
2013-12-15,27.1,21.4,13.8,11.7,3.7,-23.2,62,47,13,29.56,29.34,16,1,16,0.00
2013-12-16,23.4,14.3,-0.4,3.7,-7.5,-25.7,54,39,11,29.93,29.53,3,0,4,0.00
2013-12-17,19.8,10.4,-5.1,2.0,-9.7,-33.2,53,39,23,29.92,29.65,0,0,0,0.00
2013-12-18,36.5,26.7,15.6,15.4,3.3,-13.5,67,39,13,29.80,29.66,8,0,8,0.00
2013-12-19,46.2,35.6,27.5,19.2,-0.8,-16.6,55,25,10,29.79,29.65,9,0,9,0.06
2013-12-20,47.7,40.4,33.3,42.0,30.2,18.8,86,67,52,29.75,29.52,0,0,0,0.12
2013-12-21,55.8,46.1,32.2,48.2,40.5,30.9,97,81,60,29.60,29.49,11,1,11,0.47
2013-12-22,42.4,36.2,32.0,40.8,34.6,28.3,100,94,83,29.72,29.32,12,1,12,0.14
2013-12-23,43.9,35.4,26.4,38.2,31.4,16.3,100,86,66,29.97,29.70,14,2,14,0.06
2013-12-24,26.8,21.2,14.0,16.5,7.0,-6.1,72,55,28,30.18,29.93,17,4,17,0.00
2013-12-25,20.3,13.6,-1.1,0.1,-16.4,-29.6,53,27,10,30.28,29.99,8,2,8,0.00
2013-12-26,37.4,27.3,19.8,17.3,-0.5,-21.3,64,33,10,29.99,29.80,15,4,15,0.01
2013-12-27,33.6,26.9,20.5,14.9,-2.4,-24.2,64,30,10,30.01,29.85,14,3,14,0.00
2013-12-28,46.9,36.1,25.7,15.6,2.3,-11.9,62,29,10,29.85,29.69,12,2,12,0.04
2013-12-29,45.0,35.9,25.9,33.5,20.3,-9.7,85,57,10,29.69,29.37,12,1,12,0.33
2013-12-30,37.9,20.3,11.8,22.8,-5.1,-27.5,59,33,10,29.95,29.43,17,5,17,0.00
2013-12-31,26.2,17.7,12.7,-0.6,-17.7,-31.4,40,23,10,29.95,29.68,24,5,24,0.00
2014-1-1,23.2,17.0,12.6,-19.1,-29.3,-33.4,18,10,10,30.12,29.95,16,5,16,0.00
2014-1-2,12.6,7.5,-2.6,-17.6,-26.6,-45.4,24,19,10,30.05,29.68,12,5,12,0.00